KDXR/DXR METAR and TAF weather

Enter ICAO airport designator
Station Type Date Time Source
KDXR METAR 2019/12/16 02:53 UTC NOAA

KDXR 160253Z 29011G18KT 10SM CLR 01/M09 A3009 RMK AO2 SLP190 T00111089 53026


Station Type Date Time Source
KDXR Decoded METAR 2019/12/16 02:53 UTC NOAA

DANBURY MUNICIPAL AIRPORT, CT, United States (KDXR) 41-22N 073-29W 139M
Dec 15, 2019 - 09:53 PM EST / 2019.12.16 0253 UTC
Wind: from the WNW (290 degrees) at 13 MPH (11 KT) gusting to 21 MPH (18 KT):0
Visibility: 10 mile(s):0
Sky conditions: clear
Temperature: 34.0 F (1.1 C)
Windchill: 24 F (-4 C):1
Dew Point: 16.0 F (-8.9 C)
Relative Humidity: 47%
Pressure (altimeter): 30.09 in. Hg (1018 hPa)
Pressure tendency: 0.08 inches (2.6 hPa) higher than three hours ago
ob: KDXR 160253Z 29011G18KT 10SM CLR 01/M09 A3009 RMK AO2 SLP190 T00111089 53026
cycle: 3

Station Type Date Time Source
KDXR TAF UTC NOAA

Error!

Example: see airport list